Time;durP1;ratioP1;P1;durP2;ratioP2;P2;SDS_P1;SDS_P2;PMS_P1;PMS_P2;Temp;Humidity;BMP_temperature;BMP_pressure;BME280_temperature;BME280_humidity;BME280_pressure;Samples;Min_cycle;Max_cycle;Signal;HPM_P1;HPM_P2
2023/12/25 00:01:16;;;;;;;;;;;;;;;;;;5087897;28;19962;-59
2023/12/25 00:03:42;;;;;;;;;;;;;;;;;;5087576;28;19920;-58
2023/12/25 00:06:08;;;;;;;;;;;;;;;;;;5086823;28;19923;-59
2023/12/25 00:08:34;;;;;;;;;;;;;;;;;;5088233;28;19956;-60
2023/12/25 00:11:00;;;;;;;;;;;;;;;;;;5090578;28;19995;-60
2023/12/25 00:13:26;;;;;;;;;;;;;;;;;;5090796;28;20069;-59
2023/12/25 00:15:51;;;;;;;;;;;;;;;;;;5089529;28;19912;-59
2023/12/25 00:18:17;;;;;;;;;;;;;;;;;;5073508;28;19943;-59
2023/12/25 00:20:43;;;;;;;;;;;;;;;;;;5089971;28;19916;-59
2023/12/25 00:23:09;;;;;;;;;;;;;;;;;;5091046;28;19927;-58
2023/12/25 00:25:35;;;;;;;;;;;;;;;;;;5089092;28;19920;-59
2023/12/25 00:28:01;;;;;;;;;;;;;;;;;;5089650;28;19920;-58
2023/12/25 00:30:27;;;;;;;;;;;;;;;;;;5089697;28;19913;-58
2023/12/25 00:32:53;;;;;;;;;;;;;;;;;;5086571;28;19912;-59
2023/12/25 00:35:19;;;;;;;;;;;;;;;;;;5088892;28;20007;-58
2023/12/25 00:37:45;;;;;;;;;;;;;;;;;;5093520;28;19922;-60
2023/12/25 00:40:11;;;;;;;;;;;;;;;;;;5094115;28;19920;-58
2023/12/25 00:42:36;;;;;;;;;;;;;;;;;;5094170;28;19919;-58
2023/12/25 00:45:02;;;;;;;;;;;;;;;;;;5093237;28;20003;-58
2023/12/25 00:47:28;;;;;;;;;;;;;;;;;;5087782;28;19912;-59
2023/12/25 00:49:54;;;;;;;;;;;;;;;;;;5094676;28;19916;-59
2023/12/25 00:52:20;;;;;;;;;;;;;;;;;;5089385;28;19912;-59
2023/12/25 00:54:46;;;;;;;;;;;;;;;;;;5094110;28;19916;-58
2023/12/25 00:57:12;;;;;;;;;;;;;;;;;;5094067;28;19955;-59
2023/12/25 00:59:38;;;;;;;;;;;;;;;;;;5093028;28;19912;-63
2023/12/25 01:02:03;;;;;;;;;;;;;;;;;;5092746;28;19999;-62
2023/12/25 01:04:29;;;;;;;;;;;;;;;;;;5094280;28;20291;-60
2023/12/25 01:06:55;;;;;;;;;;;;;;;;;;5093651;28;19969;-62
2023/12/25 01:09:21;;;;;;;;;;;;;;;;;;5093632;28;19955;-62
2023/12/25 01:11:47;;;;;;;;;;;;;;;;;;5093143;28;19990;-62
2023/12/25 01:14:13;;;;;;;;;;;;;;;;;;5093782;28;19912;-62
2023/12/25 01:16:39;;;;;;;;;;;;;;;;;;5093869;28;20398;-62
2023/12/25 01:19:05;;;;;;;;;;;;;;;;;;5084947;28;19924;-62
2023/12/25 01:21:34;;;;;;;;;;;;;;;;;;5090216;28;19912;-62
2023/12/25 01:24:00;;;;;;;;;;;;;;;;;;5092250;28;19916;-62
2023/12/25 01:26:26;;;;;;;;;;;;;;;;;;5092937;28;19919;-62
2023/12/25 01:28:52;;;;;;;;;;;;;;;;;;5094248;28;20329;-62
2023/12/25 01:31:18;;;;;;;;;;;;;;;;;;5092705;28;20372;-63
2023/12/25 01:33:44;;;;;;;;;;;;;;;;;;5094341;28;19922;-63
2023/12/25 01:36:10;;;;;;;;;;;;;;;;;;5092970;28;20019;-61
2023/12/25 01:38:36;;;;;;;;;;;;;;;;;;5094234;28;19926;-62
2023/12/25 01:41:02;;;;;;;;;;;;;;;;;;5093601;28;19933;-63
2023/12/25 01:43:28;;;;;;;;;;;;;;;;;;5093967;28;19916;-62
2023/12/25 01:45:53;;;;;;;;;;;;;;;;;;5092912;28;19955;-62
2023/12/25 01:48:20;;;;;;;;;;;;;;;;;;5094263;28;20002;-63
2023/12/25 01:50:46;;;;;;;;;;;;;;;;;;5092181;28;19912;-63
2023/12/25 01:53:12;;;;;;;;;;;;;;;;;;5093456;28;19919;-62
2023/12/25 01:55:37;;;;;;;;;;;;;;;;;;5093220;28;19912;-62
2023/12/25 01:58:03;;;;;;;;;;;;;;;;;;5087838;28;19913;-62
2023/12/25 02:00:29;;;;;;;;;;;;;;;;;;5091835;28;19926;-63
2023/12/25 02:02:55;;;;;;;;;;;;;;;;;;5092886;28;19920;-63
2023/12/25 02:05:21;;;;;;;;;;;;;;;;;;5093280;28;20007;-63
2023/12/25 02:07:47;;;;;;;;;;;;;;;;;;5092033;28;19920;-63
2023/12/25 02:10:13;;;;;;;;;;;;;;;;;;5092145;28;19913;-63
2023/12/25 02:12:39;;;;;;;;;;;;;;;;;;5092850;28;19912;-63
2023/12/25 02:15:05;;;;;;;;;;;;;;;;;;5091736;28;20434;-63
2023/12/25 02:17:31;;;;;;;;;;;;;;;;;;5088717;28;19916;-63
2023/12/25 02:19:57;;;;;;;;;;;;;;;;;;5092198;28;20283;-63
2023/12/25 02:22:22;;;;;;;;;;;;;;;;;;5091151;28;19974;-63
2023/12/25 02:24:49;;;;;;;;;;;;;;;;;;5091641;28;19966;-63
2023/12/25 02:27:15;;;;;;;;;;;;;;;;;;5092410;28;19961;-62
2023/12/25 02:29:41;;;;;;;;;;;;;;;;;;5088878;28;20023;-62
2023/12/25 02:32:07;;;;;;;;;;;;;;;;;;5090994;28;19912;-62
2023/12/25 02:34:32;;;;;;;;;;;;;;;;;;5087296;28;19912;-62
2023/12/25 02:36:58;;;;;;;;;;;;;;;;;;5088019;28;20002;-62
2023/12/25 02:39:24;;;;;;;;;;;;;;;;;;5092005;28;19912;-62
2023/12/25 02:41:50;;;;;;;;;;;;;;;;;;5091640;28;19912;-62
2023/12/25 02:44:16;;;;;;;;;;;;;;;;;;5085467;28;19923;-62
2023/12/25 02:46:42;;;;;;;;;;;;;;;;;;5085861;28;19919;-62
2023/12/25 02:49:08;;;;;;;;;;;;;;;;;;5092163;28;19955;-62
2023/12/25 02:51:34;;;;;;;;;;;;;;;;;;5092479;28;20006;-62
2023/12/25 02:54:00;;;;;;;;;;;;;;;;;;5092188;28;19912;-62
2023/12/25 02:56:26;;;;;;;;;;;;;;;;;;5092964;28;19946;-63
2023/12/25 02:58:51;;;;;;;;;;;;;;;;;;5092629;28;19912;-63
2023/12/25 03:01:17;;;;;;;;;;;;;;;;;;5090463;28;19947;-62
2023/12/25 03:03:44;;;;;;;;;;;;;;;;;;5092026;28;19912;-61
2023/12/25 03:06:10;;;;;;;;;;;;;;;;;;5089998;28;21552;-62
2023/12/25 03:08:36;;;;;;;;;;;;;;;;;;5091165;28;20031;-62
2023/12/25 03:11:02;;;;;;;;;;;;;;;;;;5085981;28;19963;-59
2023/12/25 03:13:28;;;;;;;;;;;;;;;;;;5082384;28;19951;-58
2023/12/25 03:15:53;;;;;;;;;;;;;;;;;;5091404;28;20260;-58
2023/12/25 03:18:19;;;;;;;;;;;;;;;;;;5091605;28;19912;-58
2023/12/25 03:20:45;;;;;;;;;;;;;;;;;;5091815;28;19970;-57
2023/12/25 03:23:11;;;;;;;;;;;;;;;;;;5091103;28;19912;-57
2023/12/25 03:25:37;;;;;;;;;;;;;;;;;;5092403;28;19919;-57
2023/12/25 03:28:03;;;;;;;;;;;;;;;;;;5080184;28;20655;-58
2023/12/25 03:30:29;;;;;;;;;;;;;;;;;;5091183;28;19971;-58
2023/12/25 03:32:55;;;;;;;;;;;;;;;;;;5090558;28;19955;-59
2023/12/25 03:35:21;;;;;;;;;;;;;;;;;;5085511;28;20003;-58
2023/12/25 03:37:46;;;;;;;;;;;;;;;;;;5089306;28;19920;-59
2023/12/25 03:40:12;;;;;;;;;;;;;;;;;;5085543;28;20002;-59
2023/12/25 03:42:38;;;;;;;;;;;;;;;;;;5091364;28;19973;-59
2023/12/25 03:45:04;;;;;;;;;;;;;;;;;;5089637;28;19935;-60
2023/12/25 03:47:30;;;;;;;;;;;;;;;;;;5091332;28;19954;-58
2023/12/25 03:49:56;;;;;;;;;;;;;;;;;;5091169;28;19935;-58
2023/12/25 03:52:22;;;;;;;;;;;;;;;;;;5088895;28;19919;-61
2023/12/25 03:54:48;;;;;;;;;;;;;;;;;;5091419;28;20009;-58
2023/12/25 03:57:14;;;;;;;;;;;;;;;;;;5091302;28;20290;-58
2023/12/25 03:59:40;;;;;;;;;;;;;;;;;;5091568;28;20032;-60
2023/12/25 04:02:06;;;;;;;;;;;;;;;;;;5090847;28;19920;-59
2023/12/25 04:04:31;;;;;;;;;;;;;;;;;;5093032;28;19962;-58
2023/12/25 04:06:57;;;;;;;;;;;;;;;;;;5094472;28;20424;-58
2023/12/25 04:09:23;;;;;;;;;;;;;;;;;;5090210;28;19916;-59
2023/12/25 04:11:49;;;;;;;;;;;;;;;;;;5091174;28;19916;-58
2023/12/25 04:14:15;;;;;;;;;;;;;;;;;;5096051;28;20002;-59
2023/12/25 04:16:41;;;;;;;;;;;;;;;;;;5091698;28;19919;-59
2023/12/25 04:19:07;;;;;;;;;;;;;;;;;;5089034;28;19921;-59
2023/12/25 04:21:33;;;;;;;;;;;;;;;;;;5092752;28;19961;-61
2023/12/25 04:23:59;;;;;;;;;;;;;;;;;;5092660;28;20395;-61
2023/12/25 04:26:25;;;;;;;;;;;;;;;;;;5091339;28;19916;-62
2023/12/25 04:28:51;;;;;;;;;;;;;;;;;;5090708;28;20288;-61
2023/12/25 04:31:16;;;;;;;;;;;;;;;;;;5081236;28;19952;-61
2023/12/25 04:33:42;;;;;;;;;;;;;;;;;;5085337;28;20011;-62
2023/12/25 04:36:08;;;;;;;;;;;;;;;;;;5092757;28;20002;-62
2023/12/25 04:38:35;;;;;;;;;;;;;;;;;;5094140;28;19917;-62
2023/12/25 04:41:01;;;;;;;;;;;;;;;;;;5090631;28;20368;-62
2023/12/25 04:43:27;;;;;;;;;;;;;;;;;;5092905;28;19958;-62
2023/12/25 04:45:53;;;;;;;;;;;;;;;;;;5090156;28;20345;-62
2023/12/25 04:48:19;;;;;;;;;;;;;;;;;;5080967;28;19964;-62
2023/12/25 04:50:45;;;;;;;;;;;;;;;;;;5093082;28;20015;-62
2023/12/25 04:53:10;;;;;;;;;;;;;;;;;;5092764;28;19912;-62
2023/12/25 04:55:37;;;;;;;;;;;;;;;;;;5094483;28;19918;-62
2023/12/25 04:58:03;;;;;;;;;;;;;;;;;;5094533;28;19919;-62
2023/12/25 05:00:29;;;;;;;;;;;;;;;;;;5092675;28;19944;-62
2023/12/25 05:02:55;;;;;;;;;;;;;;;;;;5085471;28;19963;-62
2023/12/25 05:05:21;;;;;;;;;;;;;;;;;;5090900;28;19975;-62
2023/12/25 05:07:47;;;;;;;;;;;;;;;;;;5094153;28;19951;-62
2023/12/25 05:10:13;;;;;;;;;;;;;;;;;;5093571;28;20006;-62
2023/12/25 05:12:39;;;;;;;;;;;;;;;;;;5093457;28;20078;-62
2023/12/25 05:15:04;;;;;;;;;;;;;;;;;;5086215;28;20039;-62
2023/12/25 05:17:30;;;;;;;;;;;;;;;;;;5087985;28;19916;-62
2023/12/25 05:19:56;;;;;;;;;;;;;;;;;;5093665;28;20440;-62
2023/12/25 05:22:22;;;;;;;;;;;;;;;;;;5092094;28;19995;-62
2023/12/25 05:24:48;;;;;;;;;;;;;;;;;;5092256;28;19962;-62
2023/12/25 05:27:14;;;;;;;;;;;;;;;;;;5089903;28;20289;-62
2023/12/25 05:29:40;;;;;;;;;;;;;;;;;;5091346;28;19920;-59
2023/12/25 05:32:06;;;;;;;;;;;;;;;;;;5091189;28;19955;-62
2023/12/25 05:34:32;;;;;;;;;;;;;;;;;;5092901;28;19966;-62
2023/12/25 05:36:57;;;;;;;;;;;;;;;;;;5091168;28;19916;-62
2023/12/25 05:39:26;;;;;;;;;;;;;;;;;;5090593;28;19916;-61
2023/12/25 05:41:53;;;;;;;;;;;;;;;;;;5086360;28;19916;-61
2023/12/25 05:44:19;;;;;;;;;;;;;;;;;;5091609;28;20307;-61
2023/12/25 05:46:45;;;;;;;;;;;;;;;;;;5090826;28;19944;-62
2023/12/25 05:49:11;;;;;;;;;;;;;;;;;;5092537;28;20011;-62
2023/12/25 05:51:38;;;;;;;;;;;;;;;;;;5092368;28;19918;-61
2023/12/25 05:54:03;;;;;;;;;;;;;;;;;;5091984;28;19920;-62
2023/12/25 05:56:29;;;;;;;;;;;;;;;;;;5087774;28;20007;-62
2023/12/25 05:58:55;;;;;;;;;;;;;;;;;;5088006;28;19916;-62
2023/12/25 06:01:21;;;;;;;;;;;;;;;;;;5088128;28;19920;-62
2023/12/25 06:03:47;;;;;;;;;;;;;;;;;;5082971;28;19912;-61
2023/12/25 06:06:13;;;;;;;;;;;;;;;;;;5086062;28;20061;-62
2023/12/25 06:08:39;;;;;;;;;;;;;;;;;;5084983;28;19923;-62
2023/12/25 06:11:05;;;;;;;;;;;;;;;;;;5090783;28;20291;-61
2023/12/25 06:13:31;;;;;;;;;;;;;;;;;;5090123;28;19923;-61
2023/12/25 06:15:56;;;;;;;;;;;;;;;;;;5086261;28;19955;-62
2023/12/25 06:18:22;;;;;;;;;;;;;;;;;;5090364;28;19912;-62
2023/12/25 06:20:48;;;;;;;;;;;;;;;;;;5090294;28;19912;-61
2023/12/25 06:23:14;;;;;;;;;;;;;;;;;;5092060;28;19916;-62
2023/12/25 06:25:40;;;;;;;;;;;;;;;;;;5091670;28;20004;-62
2023/12/25 06:28:06;;;;;;;;;;;;;;;;;;5084569;28;20414;-62
2023/12/25 06:30:32;;;;;;;;;;;;;;;;;;5090429;28;19920;-60
2023/12/25 06:32:58;;;;;;;;;;;;;;;;;;5091967;28;19912;-62
2023/12/25 06:35:24;;;;;;;;;;;;;;;;;;5091778;28;19912;-62
2023/12/25 06:37:50;;;;;;;;;;;;;;;;;;5089305;28;20005;-61
2023/12/25 06:40:16;;;;;;;;;;;;;;;;;;5089796;28;20451;-58
2023/12/25 06:42:42;;;;;;;;;;;;;;;;;;5092683;28;20003;-59
2023/12/25 06:45:08;;;;;;;;;;;;;;;;;;5090028;28;19996;-59
2023/12/25 06:47:34;;;;;;;;;;;;;;;;;;5087395;28;20367;-60
2023/12/25 06:50:00;;;;;;;;;;;;;;;;;;5085055;28;19939;-59
2023/12/25 06:52:26;;;;;;;;;;;;;;;;;;5090612;28;19920;-60
2023/12/25 06:54:52;;;;;;;;;;;;;;;;;;5087055;28;19942;-58
2023/12/25 06:57:18;;;;;;;;;;;;;;;;;;5091910;28;19988;-60
2023/12/25 06:59:43;;;;;;;;;;;;;;;;;;5091200;28;20387;-59
2023/12/25 07:02:09;;;;;;;;;;;;;;;;;;5091902;28;20010;-60
2023/12/25 07:04:35;;;;;;;;;;;;;;;;;;5089720;28;19916;-59
2023/12/25 07:07:01;;;;;;;;;;;;;;;;;;5090772;28;19913;-60
2023/12/25 07:09:27;;;;;;;;;;;;;;;;;;5089195;28;20073;-58
2023/12/25 07:11:53;;;;;;;;;;;;;;;;;;5088606;28;19919;-60
2023/12/25 07:14:19;;;;;;;;;;;;;;;;;;5088813;28;19942;-59
2023/12/25 07:16:45;;;;;;;;;;;;;;;;;;5084715;28;19913;-59
2023/12/25 07:19:11;;;;;;;;;;;;;;;;;;5088539;28;19943;-61
2023/12/25 07:21:37;;;;;;;;;;;;;;;;;;5086837;28;20298;-59
2023/12/25 07:24:04;;;;;;;;;;;;;;;;;;5092402;28;19908;-59
2023/12/25 07:26:30;;;;;;;;;;;;;;;;;;5090992;28;19961;-60
2023/12/25 07:28:58;;;;;;;;;;;;;;;;;;5089445;28;19954;-58
2023/12/25 07:31:24;;;;;;;;;;;;;;;;;;5086077;28;20570;-61
2023/12/25 07:33:53;;;;;;;;;;;;;;;;;;5086107;28;19946;-59
2023/12/25 07:36:19;;;;;;;;;;;;;;;;;;5089919;28;20303;-60
2023/12/25 07:38:45;;;;;;;;;;;;;;;;;;5088330;28;19920;-58
2023/12/25 07:41:11;;;;;;;;;;;;;;;;;;5077262;28;19967;-59
2023/12/25 07:43:37;;;;;;;;;;;;;;;;;;5089862;28;19912;-59
2023/12/25 07:46:03;;;;;;;;;;;;;;;;;;5089479;28;19955;-60
2023/12/25 07:48:29;;;;;;;;;;;;;;;;;;5083303;28;19920;-61
2023/12/25 07:50:55;;;;;;;;;;;;;;;;;;5089033;28;19920;-60
2023/12/25 07:53:21;;;;;;;;;;;;;;;;;;5090121;28;19951;-59
2023/12/25 07:55:46;;;;;;;;;;;;;;;;;;5085404;28;19958;-59
2023/12/25 07:58:14;;;;;;;;;;;;;;;;;;5089542;28;20325;-61
2023/12/25 08:00:42;;;;;;;;;;;;;;;;;;5075631;28;19919;-59
2023/12/25 08:03:08;;;;;;;;;;;;;;;;;;5078086;28;20443;-60
2023/12/25 08:05:34;;;;;;;;;;;;;;;;;;5087498;28;19966;-60
2023/12/25 08:08:00;;;;;;;;;;;;;;;;;;5085244;28;19916;-59
2023/12/25 08:10:26;;;;;;;;;;;;;;;;;;5087864;28;19948;-58
2023/12/25 08:12:52;;;;;;;;;;;;;;;;;;5085684;28;19916;-59
2023/12/25 08:15:18;;;;;;;;;;;;;;;;;;5089900;28;19985;-59
2023/12/25 08:17:44;;;;;;;;;;;;;;;;;;5082284;28;20010;-61
2023/12/25 08:20:10;;;;;;;;;;;;;;;;;;5088972;28;20119;-59
2023/12/25 08:22:36;;;;;;;;;;;;;;;;;;5087317;28;19992;-60
2023/12/25 08:25:03;;;;;;;;;;;;;;;;;;5089233;28;19920;-59
2023/12/25 08:27:29;;;;;;;;;;;;;;;;;;5081164;28;19916;-59
2023/12/25 08:29:55;;;;;;;;;;;;;;;;;;5089502;28;20030;-62
2023/12/25 08:32:21;;;;;;;;;;;;;;;;;;5084835;28;19920;-60
2023/12/25 08:34:47;;;;;;;;;;;;;;;;;;5084359;28;19978;-61
2023/12/25 08:37:12;;;;;;;;;;;;;;;;;;5089013;28;19915;-60
2023/12/25 08:39:38;;;;;;;;;;;;;;;;;;5083227;28;19912;-59
2023/12/25 08:42:04;;;;;;;;;;;;;;;;;;5083873;28;19919;-59
2023/12/25 08:44:32;;;;;;;;;;;;;;;;;;5087116;28;19923;-60
2023/12/25 08:46:58;;;;;;;;;;;;;;;;;;5087913;28;19948;-59
2023/12/25 08:49:24;;;;;;;;;;;;;;;;;;5089908;28;19966;-60
2023/12/25 08:51:50;;;;;;;;;;;;;;;;;;5088581;28;20256;-61
2023/12/25 08:54:16;;;;;;;;;;;;;;;;;;5093547;28;20022;-60
2023/12/25 08:56:42;;;;;;;;;;;;;;;;;;5089651;28;19916;-60
2023/12/25 08:59:07;;;;;;;;;;;;;;;;;;5078781;28;19947;-61
2023/12/25 09:01:33;;;;;;;;;;;;;;;;;;5089014;28;19963;-63
2023/12/25 09:03:59;;;;;;;;;;;;;;;;;;5091890;28;19997;-63
2023/12/25 09:06:25;;;;;;;;;;;;;;;;;;5093419;28;19912;-63
2023/12/25 09:08:51;;;;;;;;;;;;;;;;;;5077513;28;19916;-63
2023/12/25 09:11:17;;;;;;;;;;;;;;;;;;5088261;28;19920;-63
2023/12/25 09:13:43;;;;;;;;;;;;;;;;;;5093305;28;20343;-63
2023/12/25 09:16:09;;;;;;;;;;;;;;;;;;5091989;28;19922;-63
2023/12/25 09:18:35;;;;;;;;;;;;;;;;;;5091824;28;20154;-63
2023/12/25 09:21:02;;;;;;;;;;;;;;;;;;5088515;28;20011;-63
2023/12/25 09:23:28;;;;;;;;;;;;;;;;;;5092670;28;19999;-63
2023/12/25 09:25:54;;;;;;;;;;;;;;;;;;5092026;28;19970;-63
2023/12/25 09:28:20;;;;;;;;;;;;;;;;;;5091795;28;20348;-64
2023/12/25 09:30:46;;;;;;;;;;;;;;;;;;5091972;28;20018;-63
2023/12/25 09:33:12;;;;;;;;;;;;;;;;;;5091405;28;19912;-63
2023/12/25 09:35:38;;;;;;;;;;;;;;;;;;5091737;28;19958;-63
2023/12/25 09:38:04;;;;;;;;;;;;;;;;;;5087969;28;19962;-63
2023/12/25 09:40:30;;;;;;;;;;;;;;;;;;5088723;28;20282;-63
2023/12/25 09:42:56;;;;;;;;;;;;;;;;;;5084822;28;19927;-63
2023/12/25 09:45:21;;;;;;;;;;;;;;;;;;5086764;28;19916;-63
2023/12/25 09:47:47;;;;;;;;;;;;;;;;;;5091697;28;20010;-63
2023/12/25 09:50:13;;;;;;;;;;;;;;;;;;5088598;28;19962;-63
2023/12/25 09:52:39;;;;;;;;;;;;;;;;;;5087131;28;19952;-63
2023/12/25 09:55:05;;;;;;;;;;;;;;;;;;5089407;28;20378;-64
2023/12/25 09:57:31;;;;;;;;;;;;;;;;;;5089821;28;19999;-64
2023/12/25 09:59:57;;;;;;;;;;;;;;;;;;5088757;28;19948;-61
2023/12/25 10:02:23;;;;;;;;;;;;;;;;;;5090011;28;19954;-64
2023/12/25 10:04:49;;;;;;;;;;;;;;;;;;5091041;28;19940;-64
2023/12/25 10:07:15;;;;;;;;;;;;;;;;;;5090131;28;19927;-64
2023/12/25 10:09:42;;;;;;;;;;;;;;;;;;5081152;28;20372;-64
2023/12/25 10:12:08;;;;;;;;;;;;;;;;;;5087159;28;19920;-64
2023/12/25 10:14:34;;;;;;;;;;;;;;;;;;5092096;28;20413;-64
2023/12/25 10:17:00;;;;;;;;;;;;;;;;;;5089575;28;19964;-64
2023/12/25 10:19:26;;;;;;;;;;;;;;;;;;5087839;28;19955;-64
2023/12/25 10:21:53;;;;;;;;;;;;;;;;;;5090553;28;19931;-64
2023/12/25 10:24:19;;;;;;;;;;;;;;;;;;5085010;28;19916;-63
2023/12/25 10:26:45;;;;;;;;;;;;;;;;;;5081429;28;19912;-64
2023/12/25 10:29:11;;;;;;;;;;;;;;;;;;5083831;28;20356;-64
2023/12/25 10:31:43;;;;;;;;;;;;;;;;;;5082100;28;19969;-65
2023/12/25 10:34:09;;;;;;;;;;;;;;;;;;5083605;28;19912;-64
2023/12/25 10:36:35;;;;;;;;;;;;;;;;;;5085984;28;19922;-64
2023/12/25 10:39:01;;;;;;;;;;;;;;;;;;5082247;28;19951;-64
2023/12/25 10:41:27;;;;;;;;;;;;;;;;;;5079737;28;19919;-64
2023/12/25 10:43:53;;;;;;;;;;;;;;;;;;5085546;28;19912;-64
2023/12/25 10:46:20;;;;;;;;;;;;;;;;;;5081895;28;19924;-64
2023/12/25 10:48:49;;;;;;;;;;;;;;;;;;5081471;28;20356;-64
2023/12/25 10:51:15;;;;;;;;;;;;;;;;;;5084327;28;19916;-64
2023/12/25 10:53:40;;;;;;;;;;;;;;;;;;5077967;28;20084;-64
2023/12/25 10:56:06;;;;;;;;;;;;;;;;;;5085369;28;19916;-64
2023/12/25 10:58:32;;;;;;;;;;;;;;;;;;5082811;28;19919;-65
2023/12/25 11:00:59;;;;;;;;;;;;;;;;;;5083810;28;20355;-64
2023/12/25 11:03:25;;;;;;;;;;;;;;;;;;5090222;28;19916;-64
2023/12/25 11:05:51;;;;;;;;;;;;;;;;;;5091839;28;20379;-64
2023/12/25 11:08:20;;;;;;;;;;;;;;;;;;5087520;28;19982;-64
2023/12/25 11:10:46;;;;;;;;;;;;;;;;;;5090453;28;19936;-64
2023/12/25 11:13:12;;;;;;;;;;;;;;;;;;5089193;28;20614;-64
2023/12/25 11:15:39;;;;;;;;;;;;;;;;;;5088173;28;19964;-64
2023/12/25 11:18:07;;;;;;;;;;;;;;;;;;5080336;28;19919;-64
2023/12/25 11:20:33;;;;;;;;;;;;;;;;;;5082052;28;20295;-59
2023/12/25 11:22:59;;;;;;;;;;;;;;;;;;5084816;28;19948;-62
2023/12/25 11:25:25;;;;;;;;;;;;;;;;;;5087152;28;19931;-60
2023/12/25 11:27:51;;;;;;;;;;;;;;;;;;5090509;28;19920;-60
2023/12/25 11:30:17;;;;;;;;;;;;;;;;;;5086697;28;20001;-60
2023/12/25 11:32:48;;;;;;;;;;;;;;;;;;5089267;28;19989;-61
2023/12/25 11:35:14;;;;;;;;;;;;;;;;;;5090011;28;19956;-60
2023/12/25 11:37:40;;;;;;;;;;;;;;;;;;5088792;28;20020;-62
2023/12/25 11:40:06;;;;;;;;;;;;;;;;;;5088847;28;19998;-61
2023/12/25 11:42:32;;;;;;;;;;;;;;;;;;5085462;28;20010;-58
2023/12/25 11:44:58;;;;;;;;;;;;;;;;;;5082453;28;19947;-60
2023/12/25 11:47:24;;;;;;;;;;;;;;;;;;5081320;28;19997;-61
2023/12/25 11:49:49;;;;;;;;;;;;;;;;;;5087542;28;20376;-61
2023/12/25 11:52:15;;;;;;;;;;;;;;;;;;5090375;28;19923;-62
2023/12/25 11:54:41;;;;;;;;;;;;;;;;;;5087470;28;20315;-60
2023/12/25 11:57:07;;;;;;;;;;;;;;;;;;5091653;28;19998;-60
2023/12/25 11:59:33;;;;;;;;;;;;;;;;;;5091147;28;20015;-60
2023/12/25 12:01:59;;;;;;;;;;;;;;;;;;5090668;28;19916;-60
2023/12/25 12:04:25;;;;;;;;;;;;;;;;;;5091328;28;20014;-62
2023/12/25 12:06:51;;;;;;;;;;;;;;;;;;5091415;28;19912;-60
2023/12/25 12:09:17;;;;;;;;;;;;;;;;;;5082969;28;19927;-61
2023/12/25 12:11:43;;;;;;;;;;;;;;;;;;5084984;28;20258;-61
2023/12/25 12:14:08;;;;;;;;;;;;;;;;;;5088217;28;20057;-61
2023/12/25 12:16:34;;;;;;;;;;;;;;;;;;5090739;28;19977;-60
2023/12/25 12:19:00;;;;;;;;;;;;;;;;;;5091228;28;19919;-62
2023/12/25 12:21:26;;;;;;;;;;;;;;;;;;5085329;28;20592;-60
2023/12/25 12:23:52;;;;;;;;;;;;;;;;;;5089542;28;20332;-61
2023/12/25 12:26:18;;;;;;;;;;;;;;;;;;5091359;28;19908;-61
2023/12/25 12:28:44;;;;;;;;;;;;;;;;;;5095023;28;19916;-60
2023/12/25 12:31:10;;;;;;;;;;;;;;;;;;5093871;28;20404;-66
2023/12/25 12:33:36;;;;;;;;;;;;;;;;;;5095006;28;19922;-66
2023/12/25 12:36:02;;;;;;;;;;;;;;;;;;5094920;28;19908;-67
2023/12/25 12:38:28;;;;;;;;;;;;;;;;;;5089329;28;20007;-65
2023/12/25 12:40:54;;;;;;;;;;;;;;;;;;5093604;28;20360;-66
2023/12/25 12:43:20;;;;;;;;;;;;;;;;;;5093873;28;19954;-66
2023/12/25 12:45:46;;;;;;;;;;;;;;;;;;5095077;28;19912;-66
2023/12/25 12:48:12;;;;;;;;;;;;;;;;;;5089477;28;19966;-65
2023/12/25 12:50:38;;;;;;;;;;;;;;;;;;5079935;28;19916;-65
2023/12/25 12:53:04;;;;;;;;;;;;;;;;;;5092823;28;19915;-65
2023/12/25 12:55:33;;;;;;;;;;;;;;;;;;5090080;28;19912;-65
2023/12/25 12:57:59;;;;;;;;;;;;;;;;;;5090543;28;19995;-65
2023/12/25 13:00:25;;;;;;;;;;;;;;;;;;5094242;28;19947;-65
2023/12/25 13:02:52;;;;;;;;;;;;;;;;;;5093601;28;19967;-65
2023/12/25 13:05:18;;;;;;;;;;;;;;;;;;5094432;28;19912;-65
2023/12/25 13:07:44;;;;;;;;;;;;;;;;;;5080992;28;20011;-66
2023/12/25 13:10:10;;;;;;;;;;;;;;;;;;5093818;28;19912;-65
2023/12/25 13:12:36;;;;;;;;;;;;;;;;;;5092700;28;19973;-65
2023/12/25 13:15:02;;;;;;;;;;;;;;;;;;5094198;28;20419;-65
2023/12/25 13:17:28;;;;;;;;;;;;;;;;;;5092890;28;19952;-65
2023/12/25 13:19:55;;;;;;;;;;;;;;;;;;5088392;28;19947;-65
2023/12/25 13:22:22;;;;;;;;;;;;;;;;;;5094293;28;19908;-67
2023/12/25 13:24:48;;;;;;;;;;;;;;;;;;5093918;28;19915;-65
2023/12/25 13:27:14;;;;;;;;;;;;;;;;;;5090811;28;19923;-65
2023/12/25 13:29:40;;;;;;;;;;;;;;;;;;5091894;28;19955;-65
2023/12/25 13:32:06;;;;;;;;;;;;;;;;;;5092913;28;19965;-64
2023/12/25 13:34:32;;;;;;;;;;;;;;;;;;5093812;28;20441;-65
2023/12/25 13:36:58;;;;;;;;;;;;;;;;;;5092518;28;19999;-65
2023/12/25 13:39:23;;;;;;;;;;;;;;;;;;5091411;28;20291;-64
2023/12/25 13:41:49;;;;;;;;;;;;;;;;;;5089670;28;20007;-62
2023/12/25 13:44:15;;;;;;;;;;;;;;;;;;5093602;28;19908;-60
2023/12/25 13:46:42;;;;;;;;;;;;;;;;;;5089496;28;20395;-61
2023/12/25 13:49:08;;;;;;;;;;;;;;;;;;5093216;28;19969;-61
2023/12/25 13:51:34;;;;;;;;;;;;;;;;;;5093419;28;20326;-62
2023/12/25 13:54:00;;;;;;;;;;;;;;;;;;5093428;28;19989;-62
2023/12/25 13:56:27;;;;;;;;;;;;;;;;;;5087466;28;19912;-60
2023/12/25 13:58:53;;;;;;;;;;;;;;;;;;5089071;28;19912;-59
2023/12/25 14:01:19;;;;;;;;;;;;;;;;;;5092818;28;19965;-61
2023/12/25 14:03:45;;;;;;;;;;;;;;;;;;5092313;28;19920;-58
2023/12/25 14:06:11;;;;;;;;;;;;;;;;;;5093345;28;19908;-59
2023/12/25 14:08:37;;;;;;;;;;;;;;;;;;5092277;28;20482;-62
2023/12/25 14:11:03;;;;;;;;;;;;;;;;;;5089764;28;19916;-59
2023/12/25 14:13:29;;;;;;;;;;;;;;;;;;5085559;28;20391;-59
2023/12/25 14:15:54;;;;;;;;;;;;;;;;;;5093363;28;19995;-61
2023/12/25 14:18:21;;;;;;;;;;;;;;;;;;5092249;28;19939;-61
2023/12/25 14:20:47;;;;;;;;;;;;;;;;;;5087175;28;20283;-62
2023/12/25 14:23:13;;;;;;;;;;;;;;;;;;5092917;28;19999;-62
2023/12/25 14:25:38;;;;;;;;;;;;;;;;;;5092875;28;19915;-61
2023/12/25 14:28:04;;;;;;;;;;;;;;;;;;5088025;28;20299;-62
2023/12/25 14:30:30;;;;;;;;;;;;;;;;;;5092557;28;20021;-61
2023/12/25 14:32:57;;;;;;;;;;;;;;;;;;5092612;28;19932;-62
2023/12/25 14:35:23;;;;;;;;;;;;;;;;;;5091143;28;19920;-59
2023/12/25 14:37:49;;;;;;;;;;;;;;;;;;5091938;28;19915;-63
2023/12/25 14:40:15;;;;;;;;;;;;;;;;;;5092610;28;19960;-60
2023/12/25 14:42:41;;;;;;;;;;;;;;;;;;5092548;28;20383;-59
2023/12/25 14:45:07;;;;;;;;;;;;;;;;;;5090930;28;20285;-59
2023/12/25 14:47:33;;;;;;;;;;;;;;;;;;5092178;28;19912;-60
2023/12/25 14:49:59;;;;;;;;;;;;;;;;;;5090514;28;20079;-66
2023/12/25 14:52:25;;;;;;;;;;;;;;;;;;5092298;28;19912;-66
2023/12/25 14:54:52;;;;;;;;;;;;;;;;;;5093033;28;19912;-66
2023/12/25 14:57:18;;;;;;;;;;;;;;;;;;5090452;28;19939;-66
2023/12/25 14:59:44;;;;;;;;;;;;;;;;;;5092857;28;19912;-66
2023/12/25 15:02:10;;;;;;;;;;;;;;;;;;5085875;28;19955;-66
2023/12/25 15:04:36;;;;;;;;;;;;;;;;;;5092187;28;19916;-66
2023/12/25 15:07:02;;;;;;;;;;;;;;;;;;5092181;28;19953;-66
2023/12/25 15:09:28;;;;;;;;;;;;;;;;;;5092535;28;20002;-66
2023/12/25 15:11:54;;;;;;;;;;;;;;;;;;5085513;28;19908;-66
2023/12/25 15:14:20;;;;;;;;;;;;;;;;;;5092919;28;20010;-67
2023/12/25 15:16:47;;;;;;;;;;;;;;;;;;5091186;28;20007;-66
2023/12/25 15:19:13;;;;;;;;;;;;;;;;;;5081066;28;19944;-66
2023/12/25 15:21:39;;;;;;;;;;;;;;;;;;5092319;28;19991;-66
2023/12/25 15:24:05;;;;;;;;;;;;;;;;;;5092781;28;20382;-66
2023/12/25 15:26:31;;;;;;;;;;;;;;;;;;5092398;28;19920;-66
2023/12/25 15:28:58;;;;;;;;;;;;;;;;;;5092746;28;19959;-66
2023/12/25 15:31:23;;;;;;;;;;;;;;;;;;5076847;28;19917;-66
2023/12/25 15:33:49;;;;;;;;;;;;;;;;;;5091590;28;20410;-66
2023/12/25 15:36:16;;;;;;;;;;;;;;;;;;5091694;28;19912;-67
2023/12/25 15:38:42;;;;;;;;;;;;;;;;;;5092975;28;19915;-66
2023/12/25 15:41:07;;;;;;;;;;;;;;;;;;5092081;28;19908;-66
2023/12/25 15:43:33;;;;;;;;;;;;;;;;;;5092464;28;19915;-66
2023/12/25 15:46:00;;;;;;;;;;;;;;;;;;5092296;28;20383;-66
2023/12/25 15:48:27;;;;;;;;;;;;;;;;;;5090249;28;19916;-66
2023/12/25 15:50:53;;;;;;;;;;;;;;;;;;5091551;28;19908;-66
2023/12/25 15:53:19;;;;;;;;;;;;;;;;;;5091382;28;20015;-66
2023/12/25 15:55:45;;;;;;;;;;;;;;;;;;5088879;28;20276;-66
2023/12/25 15:58:11;;;;;;;;;;;;;;;;;;5090575;28;19916;-66
2023/12/25 16:00:37;;;;;;;;;;;;;;;;;;5092421;28;19982;-66
2023/12/25 16:03:04;;;;;;;;;;;;;;;;;;5096365;28;19908;-67
2023/12/25 16:05:30;;;;;;;;;;;;;;;;;;5093438;28;19966;-67
2023/12/25 16:07:56;;;;;;;;;;;;;;;;;;5093349;28;20359;-67
2023/12/25 16:10:22;;;;;;;;;;;;;;;;;;5086646;28;19920;-67
2023/12/25 16:12:48;;;;;;;;;;;;;;;;;;5085554;28;19935;-67
2023/12/25 16:15:13;;;;;;;;;;;;;;;;;;5086437;28;20325;-67
2023/12/25 16:17:39;;;;;;;;;;;;;;;;;;5091949;28;19912;-67
2023/12/25 16:20:05;;;;;;;;;;;;;;;;;;5091503;28;19919;-66
2023/12/25 16:22:32;;;;;;;;;;;;;;;;;;5092996;28;20094;-66
2023/12/25 16:24:58;;;;;;;;;;;;;;;;;;5086849;28;19912;-66
2023/12/25 16:27:24;;;;;;;;;;;;;;;;;;5094684;28;19923;-67
2023/12/25 16:29:50;;;;;;;;;;;;;;;;;;5095398;28;19951;-67
2023/12/25 16:32:16;;;;;;;;;;;;;;;;;;5095631;28;20397;-66
2023/12/25 16:34:42;;;;;;;;;;;;;;;;;;5088950;28;19925;-67
2023/12/25 16:37:07;;;;;;;;;;;;;;;;;;5092784;28;19920;-67